Rio Grande da Serra, Brazil
Current Conditions -  °F | °C
As of 6:00 PM on Wednesday 28 Jan 2015 (Local Time) from SBSP Reporting Station
Scattered Clouds Scattered Clouds  
Wind Chill: 84°   Ceiling: Unl
Heat Index: 85°   Visibility: 6mi
Dew Point: 63°   Wind: 9mph
Humidity: 48%   Direction: 300°WNW
Pressure: 29.97"   Gusts: NA
Location:  23.8°S, 46.34°W
Report Text: SBSP 282000Z 30008KT 9999 SCT045 29/17 Q1015
Loading
Personal Weather Stations






























Interactive Weather Map New forecast layout! Learn more

10-Day Weather Forecast

Advertisements
Track Severe Weather on mobile